sensor_id;sensor_type;location;lat;lon;timestamp;pressure;altitude;pressure_sealevel;temperature
48003;BMP280;33768;48.578;11.574;2023-04-03T00:01:47;97068.41;;;3.68
48003;BMP280;33768;48.578;11.574;2023-04-03T00:04:51;97077.28;;;3.68
48003;BMP280;33768;48.578;11.574;2023-04-03T00:07:55;97078.75;;;3.69
48003;BMP280;33768;48.578;11.574;2023-04-03T00:10:59;97075.63;;;3.71
48003;BMP280;33768;48.578;11.574;2023-04-03T00:14:03;97080.00;;;3.68
48003;BMP280;33768;48.578;11.574;2023-04-03T00:17:07;97081.91;;;3.68
48003;BMP280;33768;48.578;11.574;2023-04-03T00:20:11;97077.28;;;3.68
48003;BMP280;33768;48.578;11.574;2023-04-03T00:23:16;97076.72;;;3.64
48003;BMP280;33768;48.578;11.574;2023-04-03T00:26:20;97072.25;;;3.61
48003;BMP280;33768;48.578;11.574;2023-04-03T00:29:24;97075.03;;;3.67
48003;BMP280;33768;48.578;11.574;2023-04-03T00:32:28;97075.03;;;3.67
48003;BMP280;33768;48.578;11.574;2023-04-03T00:35:34;97080.88;;;3.65
48003;BMP280;33768;48.578;11.574;2023-04-03T00:38:38;97074.56;;;3.54
48003;BMP280;33768;48.578;11.574;2023-04-03T00:41:43;97081.63;;;3.51
48003;BMP280;33768;48.578;11.574;2023-04-03T00:47:51;97075.00;;;3.52
48003;BMP280;33768;48.578;11.574;2023-04-03T00:50:55;97067.84;;;3.49
48003;BMP280;33768;48.578;11.574;2023-04-03T00:54:03;97071.56;;;3.52
48003;BMP280;33768;48.578;11.574;2023-04-03T00:57:09;97072.59;;;3.54
48003;BMP280;33768;48.578;11.574;2023-04-03T01:00:16;97078.94;;;3.51
48003;BMP280;33768;48.578;11.574;2023-04-03T01:03:22;97066.06;;;3.46
48003;BMP280;33768;48.578;11.574;2023-04-03T01:06:29;97065.50;;;3.42
48003;BMP280;33768;48.578;11.574;2023-04-03T01:09:44;97063.09;;;3.44
48003;BMP280;33768;48.578;11.574;2023-04-03T01:12:50;97061.63;;;3.43
48003;BMP280;33768;48.578;11.574;2023-04-03T01:15:54;97064.31;;;3.43
48003;BMP280;33768;48.578;11.574;2023-04-03T01:19:00;97066.06;;;3.46
48003;BMP280;33768;48.578;11.574;2023-04-03T01:22:17;97076.59;;;3.44
48003;BMP280;33768;48.578;11.574;2023-04-03T01:25:24;97080.78;;;3.45
48003;BMP280;33768;48.578;11.574;2023-04-03T01:28:34;97081.81;;;3.48
48003;BMP280;33768;48.578;11.574;2023-04-03T01:31:50;97086.44;;;3.47
48003;BMP280;33768;48.578;11.574;2023-04-03T01:34:54;97083.19;;;3.43
48003;BMP280;33768;48.578;11.574;2023-04-03T01:37:59;97083.19;;;3.43
48003;BMP280;33768;48.578;11.574;2023-04-03T01:41:03;97093.81;;;3.47
48003;BMP280;33768;48.578;11.574;2023-04-03T01:44:08;97089.16;;;3.47
48003;BMP280;33768;48.578;11.574;2023-04-03T01:47:12;97091.22;;;3.52
48003;BMP280;33768;48.578;11.574;2023-04-03T01:50:17;97091.03;;;3.56
48003;BMP280;33768;48.578;11.574;2023-04-03T01:53:22;97091.97;;;3.53
48003;BMP280;33768;48.578;11.574;2023-04-03T01:56:26;97088.81;;;3.54
48003;BMP280;33768;48.578;11.574;2023-04-03T01:59:31;97088.25;;;3.50
48003;BMP280;33768;48.578;11.574;2023-04-03T02:02:35;97090.66;;;3.48
48003;BMP280;33768;48.578;11.574;2023-04-03T02:05:39;97094.00;;;3.43
48003;BMP280;33768;48.578;11.574;2023-04-03T02:08:43;97079.75;;;3.43
48003;BMP280;33768;48.578;11.574;2023-04-03T02:11:47;97086.34;;;3.42
48003;BMP280;33768;48.578;11.574;2023-04-03T02:14:51;97085.31;;;3.40
48003;BMP280;33768;48.578;11.574;2023-04-03T02:17:55;97083.09;;;3.38
48003;BMP280;33768;48.578;11.574;2023-04-03T02:20:59;97085.03;;;3.38
48003;BMP280;33768;48.578;11.574;2023-04-03T02:24:04;97080.56;;;3.35
48003;BMP280;33768;48.578;11.574;2023-04-03T02:27:08;97080.13;;;3.36
48003;BMP280;33768;48.578;11.574;2023-04-03T02:30:12;97078.16;;;3.37
48003;BMP280;33768;48.578;11.574;2023-04-03T02:33:18;97081.88;;;3.39
48003;BMP280;33768;48.578;11.574;2023-04-03T02:36:22;97074.09;;;3.41
48003;BMP280;33768;48.578;11.574;2023-04-03T02:39:31;97072.13;;;3.42
48003;BMP280;33768;48.578;11.574;2023-04-03T02:42:37;97070.00;;;3.45
48003;BMP280;33768;48.578;11.574;2023-04-03T02:45:41;97080.78;;;3.45
48003;BMP280;33768;48.578;11.574;2023-04-03T02:48:45;97077.22;;;3.40
48003;BMP280;33768;48.578;11.574;2023-04-03T02:51:49;97079.38;;;3.36
48003;BMP280;33768;48.578;11.574;2023-04-03T02:54:55;97073.88;;;3.30
48003;BMP280;33768;48.578;11.574;2023-04-03T02:57:59;97074.78;;;3.27
48003;BMP280;33768;48.578;11.574;2023-04-03T03:01:03;97077.66;;;3.24
48003;BMP280;33768;48.578;11.574;2023-04-03T03:47:20;97064.53;;;3.17
48003;BMP280;33768;48.578;11.574;2023-04-03T03:52:30;97068.16;;;3.14
48003;BMP280;33768;48.578;11.574;2023-04-03T03:56:13;97070.28;;;3.10
48003;BMP280;33768;48.578;11.574;2023-04-03T03:59:18;97074.66;;;3.08
48003;BMP280;33768;48.578;11.574;2023-04-03T04:02:24;97072.41;;;3.06
48003;BMP280;33768;48.578;11.574;2023-04-03T04:05:30;97074.81;;;3.04
48003;BMP280;33768;48.578;11.574;2023-04-03T04:08:35;97071.78;;;3.11
48003;BMP280;33768;48.578;11.574;2023-04-03T04:11:39;97078.53;;;3.07
48003;BMP280;33768;48.578;11.574;2023-04-03T04:14:44;97078.00;;;3.03
48003;BMP280;33768;48.578;11.574;2023-04-03T04:17:51;97074.25;;;3.00
48003;BMP280;33768;48.578;11.574;2023-04-03T04:20:56;97080.84;;;2.99
48003;BMP280;33768;48.578;11.574;2023-04-03T04:24:00;97080.53;;;2.97
48003;BMP280;33768;48.578;11.574;2023-04-03T04:47:35;97094.72;;;2.83
48003;BMP280;33768;48.578;11.574;2023-04-03T04:52:21;97096.28;;;2.76
48003;BMP280;33768;48.578;11.574;2023-04-03T05:01:18;97094.50;;;2.73
48003;BMP280;33768;48.578;11.574;2023-04-03T05:04:33;97098.38;;;2.72
48003;BMP280;33768;48.578;11.574;2023-04-03T05:08:03;97098.38;;;2.72
48003;BMP280;33768;48.578;11.574;2023-04-03T05:12:08;97098.97;;;2.76
48003;BMP280;33768;48.578;11.574;2023-04-03T05:15:30;97104.81;;;2.74
48003;BMP280;33768;48.578;11.574;2023-04-03T05:18:34;97096.91;;;2.71
48003;BMP280;33768;48.578;11.574;2023-04-03T05:21:43;97107.69;;;2.71
48003;BMP280;33768;48.578;11.574;2023-04-03T05:24:51;97105.00;;;2.71
48003;BMP280;33768;48.578;11.574;2023-04-03T05:27:57;97105.19;;;2.67
48003;BMP280;33768;48.578;11.574;2023-04-03T05:31:03;97103.22;;;2.68
48003;BMP280;33768;48.578;11.574;2023-04-03T05:34:11;97095.59;;;2.66
48003;BMP280;33768;48.578;11.574;2023-04-03T05:37:17;97112.63;;;2.72
48003;BMP280;33768;48.578;11.574;2023-04-03T05:40:21;97112.91;;;2.74
48003;BMP280;33768;48.578;11.574;2023-04-03T05:43:31;97111.25;;;2.77
48003;BMP280;33768;48.578;11.574;2023-04-03T05:48:17;97116.75;;;2.82
48003;BMP280;33768;48.578;11.574;2023-04-03T05:53:44;97116.91;;;2.87
48003;BMP280;33768;48.578;11.574;2023-04-03T05:58:47;97122.81;;;3.00
48003;BMP280;33768;48.578;11.574;2023-04-03T06:23:02;97131.72;;;3.15
48003;BMP280;33768;48.578;11.574;2023-04-03T06:27:59;97140.00;;;3.26
48003;BMP280;33768;48.578;11.574;2023-04-03T06:43:04;97151.41;;;3.44
48003;BMP280;33768;48.578;11.574;2023-04-03T06:46:16;97150.56;;;3.38
48003;BMP280;33768;48.578;11.574;2023-04-03T06:49:26;97138.97;;;3.46
48003;BMP280;33768;48.578;11.574;2023-04-03T06:57:17;97153.06;;;3.65
48003;BMP280;33768;48.578;11.574;2023-04-03T07:01:22;97154.75;;;3.76
48003;BMP280;33768;48.578;11.574;2023-04-03T07:04:26;97155.13;;;3.84
48003;BMP280;33768;48.578;11.574;2023-04-03T07:07:30;97163.25;;;3.84
48003;BMP280;33768;48.578;11.574;2023-04-03T07:10:34;97169.47;;;3.75
48003;BMP280;33768;48.578;11.574;2023-04-03T07:13:38;97171.06;;;3.82
48003;BMP280;33768;48.578;11.574;2023-04-03T07:16:43;97166.72;;;3.99
48003;BMP280;33768;48.578;11.574;2023-04-03T07:19:47;97178.44;;;4.10
48003;BMP280;33768;48.578;11.574;2023-04-03T07:22:51;97179.84;;;4.20
48003;BMP280;33768;48.578;11.574;2023-04-03T07:26:21;97177.53;;;3.99
48003;BMP280;33768;48.578;11.574;2023-04-03T07:29:26;97182.53;;;4.05
48003;BMP280;33768;48.578;11.574;2023-04-03T07:33:03;97186.28;;;4.22
48003;BMP280;33768;48.578;11.574;2023-04-03T07:37:02;97188.16;;;4.31
48003;BMP280;33768;48.578;11.574;2023-04-03T07:43:36;97191.88;;;4.33
48003;BMP280;33768;48.578;11.574;2023-04-03T07:46:47;97185.91;;;4.58
48003;BMP280;33768;48.578;11.574;2023-04-03T07:49:52;97193.34;;;4.63
48003;BMP280;33768;48.578;11.574;2023-04-03T07:53:02;97187.00;;;4.66
48003;BMP280;33768;48.578;11.574;2023-04-03T07:56:17;97197.09;;;4.79
48003;BMP280;33768;48.578;11.574;2023-04-03T07:59:26;97187.47;;;5.12
48003;BMP280;33768;48.578;11.574;2023-04-03T08:02:33;97185.47;;;5.47
48003;BMP280;33768;48.578;11.574;2023-04-03T08:05:42;97193.34;;;5.64
48003;BMP280;33768;48.578;11.574;2023-04-03T08:08:47;97186.50;;;5.89
48003;BMP280;33768;48.578;11.574;2023-04-03T08:11:54;97195.41;;;6.14
48003;BMP280;33768;48.578;11.574;2023-04-03T08:15:14;97194.53;;;6.23
48003;BMP280;33768;48.578;11.574;2023-04-03T08:18:23;97191.47;;;5.90
48003;BMP280;33768;48.578;11.574;2023-04-03T08:21:31;97201.84;;;5.38
48003;BMP280;33768;48.578;11.574;2023-04-03T08:24:35;97206.06;;;5.05
48003;BMP280;33768;48.578;11.574;2023-04-03T08:28:00;97200.59;;;4.85
48003;BMP280;33768;48.578;11.574;2023-04-03T08:31:17;97204.09;;;5.05
48003;BMP280;33768;48.578;11.574;2023-04-03T08:34:22;97207.06;;;5.41
48003;BMP280;33768;48.578;11.574;2023-04-03T08:37:28;97209.06;;;5.80
48003;BMP280;33768;48.578;11.574;2023-04-03T08:40:38;97185.38;;;5.75
48003;BMP280;33768;48.578;11.574;2023-04-03T08:44:17;97195.22;;;5.59
48003;BMP280;33768;48.578;11.574;2023-04-03T08:47:38;97204.91;;;5.45
48003;BMP280;33768;48.578;11.574;2023-04-03T08:50:57;97204.25;;;5.50
48003;BMP280;33768;48.578;11.574;2023-04-03T08:54:05;97215.75;;;5.65
48003;BMP280;33768;48.578;11.574;2023-04-03T08:57:17;97213.59;;;5.89
48003;BMP280;33768;48.578;11.574;2023-04-03T09:00:50;97211.28;;;5.82
48003;BMP280;33768;48.578;11.574;2023-04-03T09:03:54;97214.28;;;5.84
48003;BMP280;33768;48.578;11.574;2023-04-03T09:07:05;97219.81;;;5.94
48003;BMP280;33768;48.578;11.574;2023-04-03T09:10:14;97230.19;;;6.16
48003;BMP280;33768;48.578;11.574;2023-04-03T09:13:30;97226.03;;;6.20
48003;BMP280;33768;48.578;11.574;2023-04-03T09:16:49;97223.19;;;6.09
48003;BMP280;33768;48.578;11.574;2023-04-03T09:20:09;97230.75;;;6.00
48003;BMP280;33768;48.578;11.574;2023-04-03T09:26:36;97220.72;;;5.86
48003;BMP280;33768;48.578;11.574;2023-04-03T09:29:44;97226.19;;;5.92
48003;BMP280;33768;48.578;11.574;2023-04-03T09:32:52;97227.94;;;6.14
48003;BMP280;33768;48.578;11.574;2023-04-03T09:35:56;97233.91;;;6.18
48003;BMP280;33768;48.578;11.574;2023-04-03T09:39:05;97228.22;;;5.96
48003;BMP280;33768;48.578;11.574;2023-04-03T09:42:18;97221.88;;;6.24
48003;BMP280;33768;48.578;11.574;2023-04-03T09:45:34;97226.50;;;6.19
48003;BMP280;33768;48.578;11.574;2023-04-03T09:48:38;97222.00;;;6.10
48003;BMP280;33768;48.578;11.574;2023-04-03T09:51:42;97217.59;;;6.38
48003;BMP280;33768;48.578;11.574;2023-04-03T09:54:48;97219.63;;;6.43
48003;BMP280;33768;48.578;11.574;2023-04-03T09:57:52;97220.34;;;6.68
48003;BMP280;33768;48.578;11.574;2023-04-03T10:00:58;97209.38;;;7.18
48003;BMP280;33768;48.578;11.574;2023-04-03T10:04:14;97214.09;;;7.23
48003;BMP280;33768;48.578;11.574;2023-04-03T10:07:35;97215.03;;;7.20
48003;BMP280;33768;48.578;11.574;2023-04-03T10:10:48;97223.44;;;6.86
48003;BMP280;33768;48.578;11.574;2023-04-03T10:13:58;97218.06;;;6.61
48003;BMP280;33768;48.578;11.574;2023-04-03T10:20:27;97212.63;;;6.36
48003;BMP280;33768;48.578;11.574;2023-04-03T10:23:44;97210.72;;;6.17
48003;BMP280;33768;48.578;11.574;2023-04-03T10:26:58;97205.72;;;6.10
48003;BMP280;33768;48.578;11.574;2023-04-03T10:33:52;97209.75;;;5.95
48003;BMP280;33768;48.578;11.574;2023-04-03T10:40:55;97206.06;;;5.59
48003;BMP280;33768;48.578;11.574;2023-04-03T10:44:40;97216.03;;;5.67
48003;BMP280;33768;48.578;11.574;2023-04-03T10:54:39;97210.13;;;6.08
48003;BMP280;33768;48.578;11.574;2023-04-03T10:57:45;97200.50;;;6.32
48003;BMP280;33768;48.578;11.574;2023-04-03T11:00:51;97201.16;;;6.77
48003;BMP280;33768;48.578;11.574;2023-04-03T11:03:59;97203.59;;;7.99
48003;BMP280;33768;48.578;11.574;2023-04-03T11:07:11;97179.47;;;8.34
48003;BMP280;33768;48.578;11.574;2023-04-03T11:10:24;97184.22;;;7.76
48003;BMP280;33768;48.578;11.574;2023-04-03T11:13:37;97183.66;;;7.61
48003;BMP280;33768;48.578;11.574;2023-04-03T11:16:47;97168.88;;;7.67
48003;BMP280;33768;48.578;11.574;2023-04-03T11:23:25;97167.28;;;7.39
48003;BMP280;33768;48.578;11.574;2023-04-03T11:26:36;97159.97;;;7.61
48003;BMP280;33768;48.578;11.574;2023-04-03T11:29:43;97158.97;;;8.65
48003;BMP280;33768;48.578;11.574;2023-04-03T11:36:34;97146.31;;;10.63
48003;BMP280;33768;48.578;11.574;2023-04-03T11:39:51;97141.44;;;10.56
48003;BMP280;33768;48.578;11.574;2023-04-03T11:46:05;97132.47;;;10.61
48003;BMP280;33768;48.578;11.574;2023-04-03T11:55:58;97136.66;;;8.23
48003;BMP280;33768;48.578;11.574;2023-04-03T12:02:36;97143.63;;;8.35
48003;BMP280;33768;48.578;11.574;2023-04-03T12:05:40;97137.91;;;8.44
48003;BMP280;33768;48.578;11.574;2023-04-03T12:08:47;97133.72;;;8.54
48003;BMP280;33768;48.578;11.574;2023-04-03T12:11:54;97141.66;;;8.57
48003;BMP280;33768;48.578;11.574;2023-04-03T12:15:20;97140.66;;;8.55
48003;BMP280;33768;48.578;11.574;2023-04-03T12:25:43;97127.41;;;9.40
48003;BMP280;33768;48.578;11.574;2023-04-03T12:28:51;97140.28;;;9.45
48003;BMP280;33768;48.578;11.574;2023-04-03T12:35:40;97128.78;;;8.85
48003;BMP280;33768;48.578;11.574;2023-04-03T12:39:11;97130.75;;;8.73
48003;BMP280;33768;48.578;11.574;2023-04-03T12:42:29;97116.66;;;8.43
48003;BMP280;33768;48.578;11.574;2023-04-03T12:48:59;97122.56;;;8.79
48003;BMP280;33768;48.578;11.574;2023-04-03T12:55:28;97102.09;;;12.01
48003;BMP280;33768;48.578;11.574;2023-04-03T12:58:33;97102.53;;;11.68
48003;BMP280;33768;48.578;11.574;2023-04-03T13:01:37;97093.34;;;10.77
48003;BMP280;33768;48.578;11.574;2023-04-03T13:04:41;97104.44;;;9.81
48003;BMP280;33768;48.578;11.574;2023-04-03T13:07:55;97103.03;;;9.64
48003;BMP280;33768;48.578;11.574;2023-04-03T13:11:09;97098.78;;;9.06
48003;BMP280;33768;48.578;11.574;2023-04-03T13:14:17;97105.25;;;8.76
48003;BMP280;33768;48.578;11.574;2023-04-03T13:17:22;97114.41;;;8.79
48003;BMP280;33768;48.578;11.574;2023-04-03T13:20:32;97106.53;;;8.27
48003;BMP280;33768;48.578;11.574;2023-04-03T13:23:42;97109.38;;;7.91
48003;BMP280;33768;48.578;11.574;2023-04-03T13:26:51;97106.41;;;9.19
48003;BMP280;33768;48.578;11.574;2023-04-03T13:29:59;97100.50;;;10.22
48003;BMP280;33768;48.578;11.574;2023-04-03T13:33:17;97103.84;;;10.67
48003;BMP280;33768;48.578;11.574;2023-04-03T13:36:26;97100.53;;;11.27
48003;BMP280;33768;48.578;11.574;2023-04-03T13:39:33;97103.06;;;11.85
48003;BMP280;33768;48.578;11.574;2023-04-03T13:42:40;97095.16;;;12.00
48003;BMP280;33768;48.578;11.574;2023-04-03T13:46:05;97087.59;;;12.24
48003;BMP280;33768;48.578;11.574;2023-04-03T13:49:22;97082.78;;;12.12
48003;BMP280;33768;48.578;11.574;2023-04-03T13:52:39;97060.63;;;12.46
48003;BMP280;33768;48.578;11.574;2023-04-03T14:02:32;97099.97;;;7.76
48003;BMP280;33768;48.578;11.574;2023-04-03T14:05:40;97099.28;;;7.97
48003;BMP280;33768;48.578;11.574;2023-04-03T14:08:45;97096.13;;;8.79
48003;BMP280;33768;48.578;11.574;2023-04-03T14:11:54;97089.06;;;9.33
48003;BMP280;33768;48.578;11.574;2023-04-03T14:15:06;97095.91;;;8.34
48003;BMP280;33768;48.578;11.574;2023-04-03T14:18:18;97103.38;;;7.60
48003;BMP280;33768;48.578;11.574;2023-04-03T14:21:23;97093.25;;;7.03
48003;BMP280;33768;48.578;11.574;2023-04-03T14:24:27;97094.72;;;6.57
48003;BMP280;33768;48.578;11.574;2023-04-03T14:27:40;97087.47;;;6.79
48003;BMP280;33768;48.578;11.574;2023-04-03T14:30:46;97087.53;;;7.42
48003;BMP280;33768;48.578;11.574;2023-04-03T14:33:50;97079.97;;;7.78
48003;BMP280;33768;48.578;11.574;2023-04-03T14:36:54;97073.31;;;7.85
48003;BMP280;33768;48.578;11.574;2023-04-03T14:40:00;97084.41;;;7.71
48003;BMP280;33768;48.578;11.574;2023-04-03T14:43:05;97085.06;;;7.44
48003;BMP280;33768;48.578;11.574;2023-04-03T14:46:20;97086.25;;;7.38
48003;BMP280;33768;48.578;11.574;2023-04-03T14:49:27;97079.59;;;7.33
48003;BMP280;33768;48.578;11.574;2023-04-03T14:52:35;97076.75;;;7.80
48003;BMP280;33768;48.578;11.574;2023-04-03T14:55:43;97086.44;;;7.92
48003;BMP280;33768;48.578;11.574;2023-04-03T14:58:50;97090.84;;;7.16
48003;BMP280;33768;48.578;11.574;2023-04-03T15:01:56;97083.41;;;6.64
48003;BMP280;33768;48.578;11.574;2023-04-03T15:05:03;97095.91;;;6.20
48003;BMP280;33768;48.578;11.574;2023-04-03T15:08:21;97096.97;;;6.28
48003;BMP280;33768;48.578;11.574;2023-04-03T15:11:25;97083.41;;;6.64
48003;BMP280;33768;48.578;11.574;2023-04-03T15:14:30;97083.88;;;6.98
48003;BMP280;33768;48.578;11.574;2023-04-03T15:17:35;97080.78;;;7.27
48003;BMP280;33768;48.578;11.574;2023-04-03T15:20:39;97088.97;;;7.38
48003;BMP280;33768;48.578;11.574;2023-04-03T15:23:44;97077.69;;;7.61
48003;BMP280;33768;48.578;11.574;2023-04-03T15:26:48;97081.97;;;7.15
48003;BMP280;33768;48.578;11.574;2023-04-03T15:29:53;97082.03;;;6.79
48003;BMP280;33768;48.578;11.574;2023-04-03T15:32:58;97090.72;;;6.53
48003;BMP280;33768;48.578;11.574;2023-04-03T15:36:03;97094.06;;;6.37
48003;BMP280;33768;48.578;11.574;2023-04-03T15:39:07;97091.09;;;6.35
48003;BMP280;33768;48.578;11.574;2023-04-03T15:42:11;97095.25;;;6.00
48003;BMP280;33768;48.578;11.574;2023-04-03T15:45:16;97098.34;;;5.68
48003;BMP280;33768;48.578;11.574;2023-04-03T15:48:20;97092.84;;;5.62
48003;BMP280;33768;48.578;11.574;2023-04-03T15:51:24;97099.91;;;5.55
48003;BMP280;33768;48.578;11.574;2023-04-03T15:54:28;97108.38;;;5.42
48003;BMP280;33768;48.578;11.574;2023-04-03T15:57:33;97095.88;;;5.45
48003;BMP280;33768;48.578;11.574;2023-04-03T16:00:37;97096.25;;;5.58
48003;BMP280;33768;48.578;11.574;2023-04-03T16:03:43;97088.75;;;5.47
48003;BMP280;33768;48.578;11.574;2023-04-03T16:06:49;97093.41;;;5.47
48003;BMP280;33768;48.578;11.574;2023-04-03T16:09:53;97095.75;;;5.59
48003;BMP280;33768;48.578;11.574;2023-04-03T16:12:57;97093.59;;;5.83
48003;BMP280;33768;48.578;11.574;2023-04-03T16:16:02;97096.13;;;5.92
48003;BMP280;33768;48.578;11.574;2023-04-03T16:19:07;97104.75;;;5.70
48003;BMP280;33768;48.578;11.574;2023-04-03T16:22:13;97099.59;;;5.47
48003;BMP280;33768;48.578;11.574;2023-04-03T16:25:17;97114.75;;;5.39
48003;BMP280;33768;48.578;11.574;2023-04-03T16:28:21;97107.44;;;5.26
48003;BMP280;33768;48.578;11.574;2023-04-03T16:31:26;97111.78;;;5.18
48003;BMP280;33768;48.578;11.574;2023-04-03T16:34:33;97113.78;;;5.03
48003;BMP280;33768;48.578;11.574;2023-04-03T16:44:16;97115.00;;;4.68
48003;BMP280;33768;48.578;11.574;2023-04-03T16:52:46;97123.88;;;4.68
48003;BMP280;33768;48.578;11.574;2023-04-03T16:55:50;97124.63;;;4.69
48003;BMP280;33768;48.578;11.574;2023-04-03T16:58:57;97133.88;;;4.63
48003;BMP280;33768;48.578;11.574;2023-04-03T17:02:02;97135.53;;;4.60
48003;BMP280;33768;48.578;11.574;2023-04-03T17:05:06;97138.16;;;4.55
48003;BMP280;33768;48.578;11.574;2023-04-03T17:08:11;97129.91;;;4.44
48003;BMP280;33768;48.578;11.574;2023-04-03T17:45:29;97146.72;;;3.53
48003;BMP280;33768;48.578;11.574;2023-04-03T17:48:33;97150.97;;;3.45
48003;BMP280;33768;48.578;11.574;2023-04-03T17:51:38;97150.84;;;3.40
48003;BMP280;33768;48.578;11.574;2023-04-03T17:54:42;97151.50;;;3.35
48003;BMP280;33768;48.578;11.574;2023-04-03T17:57:47;97156.31;;;3.31
48003;BMP280;33768;48.578;11.574;2023-04-03T18:05:03;97158.22;;;3.16
48003;BMP280;33768;48.578;11.574;2023-04-03T18:08:07;97169.19;;;3.13
48003;BMP280;33768;48.578;11.574;2023-04-03T18:16:20;97176.91;;;2.97
48003;BMP280;33768;48.578;11.574;2023-04-03T18:25:46;97188.88;;;2.73
48003;BMP280;33768;48.578;11.574;2023-04-03T18:30:15;97181.53;;;2.64
48003;BMP280;33768;48.578;11.574;2023-04-03T18:33:30;97187.28;;;2.57
48003;BMP280;33768;48.578;11.574;2023-04-03T18:37:13;97182.66;;;2.49
48003;BMP280;33768;48.578;11.574;2023-04-03T18:46:04;97185.88;;;2.30
48003;BMP280;33768;48.578;11.574;2023-04-03T18:49:10;97191.88;;;2.25
48003;BMP280;33768;48.578;11.574;2023-04-03T18:52:15;97193.66;;;2.19
48003;BMP280;33768;48.578;11.574;2023-04-03T18:55:19;97198.16;;;2.13
48003;BMP280;33768;48.578;11.574;2023-04-03T18:58:23;97207.91;;;2.11
48003;BMP280;33768;48.578;11.574;2023-04-03T19:17:17;97214.50;;;1.83
48003;BMP280;33768;48.578;11.574;2023-04-03T19:20:21;97218.53;;;1.79
48003;BMP280;33768;48.578;11.574;2023-04-03T19:23:25;97217.78;;;1.78
48003;BMP280;33768;48.578;11.574;2023-04-03T19:26:29;97213.75;;;1.74
48003;BMP280;33768;48.578;11.574;2023-04-03T19:29:34;97219.28;;;1.70
48003;BMP280;33768;48.578;11.574;2023-04-03T19:32:38;97227.97;;;1.65
48003;BMP280;33768;48.578;11.574;2023-04-03T19:35:42;97233.94;;;1.60
48003;BMP280;33768;48.578;11.574;2023-04-03T19:38:46;97226.75;;;1.57
48003;BMP280;33768;48.578;11.574;2023-04-03T19:41:50;97222.72;;;1.53
48003;BMP280;33768;48.578;11.574;2023-04-03T19:44:55;97228.69;;;1.48
48003;BMP280;33768;48.578;11.574;2023-04-03T19:47:59;97226.31;;;1.41
48003;BMP280;33768;48.578;11.574;2023-04-03T19:51:04;97224.22;;;1.36
48003;BMP280;33768;48.578;11.574;2023-04-03T19:54:08;97222.09;;;1.31
48003;BMP280;33768;48.578;11.574;2023-04-03T19:57:13;97220.44;;;1.25
48003;BMP280;33768;48.578;11.574;2023-04-03T20:00:18;97219.84;;;1.21
48003;BMP280;33768;48.578;11.574;2023-04-03T20:03:23;97231.19;;;1.16
48003;BMP280;33768;48.578;11.574;2023-04-03T20:06:27;97231.63;;;1.15
48003;BMP280;33768;48.578;11.574;2023-04-03T20:09:32;97227.88;;;1.12
48003;BMP280;33768;48.578;11.574;2023-04-03T20:12:37;97218.31;;;1.11
48003;BMP280;33768;48.578;11.574;2023-04-03T20:15:42;97228.78;;;1.09
48003;BMP280;33768;48.578;11.574;2023-04-03T20:18:47;97230.41;;;1.07
48003;BMP280;33768;48.578;11.574;2023-04-03T20:21:52;97232.78;;;1.05
48003;BMP280;33768;48.578;11.574;2023-04-03T20:24:57;97226.03;;;1.00
48003;BMP280;33768;48.578;11.574;2023-04-03T20:28:01;97235.47;;;0.96
48003;BMP280;33768;48.578;11.574;2023-04-03T20:31:05;97234.69;;;0.95
48003;BMP280;33768;48.578;11.574;2023-04-03T20:34:10;97228.72;;;0.92
48003;BMP280;33768;48.578;11.574;2023-04-03T20:37:14;97230.22;;;0.93
48003;BMP280;33768;48.578;11.574;2023-04-03T20:40:24;97230.94;;;0.93
48003;BMP280;33768;48.578;11.574;2023-04-03T20:43:29;97224.53;;;0.91
48003;BMP280;33768;48.578;11.574;2023-04-03T20:46:33;97228.72;;;0.92
48003;BMP280;33768;48.578;11.574;2023-04-03T20:49:38;97223.63;;;0.85
48003;BMP280;33768;48.578;11.574;2023-04-03T20:52:42;97220.44;;;0.77
48003;BMP280;33768;48.578;11.574;2023-04-03T20:55:56;97221.03;;;0.72
48003;BMP280;33768;48.578;11.574;2023-04-03T20:59:03;97224.59;;;0.69
48003;BMP280;33768;48.578;11.574;2023-04-03T21:02:08;97220.53;;;0.65
48003;BMP280;33768;48.578;11.574;2023-04-03T21:05:15;97228.00;;;0.61
48003;BMP280;33768;48.578;11.574;2023-04-03T21:19:14;97222.81;;;0.45
48003;BMP280;33768;48.578;11.574;2023-04-03T21:22:21;97218.06;;;0.40
48003;BMP280;33768;48.578;11.574;2023-04-03T21:25:26;97224.00;;;0.35
48003;BMP280;33768;48.578;11.574;2023-04-03T21:28:30;97213.50;;;0.29
48003;BMP280;33768;48.578;11.574;2023-04-03T21:31:57;97216.31;;;0.25
48003;BMP280;33768;48.578;11.574;2023-04-03T21:35:01;97213.34;;;0.23
48003;BMP280;33768;48.578;11.574;2023-04-03T21:38:05;97227.19;;;0.22
48003;BMP280;33768;48.578;11.574;2023-04-03T21:41:09;97229.13;;;0.21
48003;BMP280;33768;48.578;11.574;2023-04-03T21:44:13;97226.59;;;0.18
48003;BMP280;33768;48.578;11.574;2023-04-03T21:47:18;97223.69;;;0.12
48003;BMP280;33768;48.578;11.574;2023-04-03T21:50:22;97227.41;;;0.06
48003;BMP280;33768;48.578;11.574;2023-04-03T21:53:27;97220.97;;;0.03
48003;BMP280;33768;48.578;11.574;2023-04-03T21:56:33;97222.25;;;-0.01
48003;BMP280;33768;48.578;11.574;2023-04-03T21:59:37;97221.34;;;-0.07
48003;BMP280;33768;48.578;11.574;2023-04-03T22:02:41;97222.50;;;-0.08
48003;BMP280;33768;48.578;11.574;2023-04-03T22:05:45;97217.13;;;-0.08
48003;BMP280;33768;48.578;11.574;2023-04-03T22:08:49;97226.38;;;-0.09
48003;BMP280;33768;48.578;11.574;2023-04-03T22:11:54;97216.41;;;-0.08
48003;BMP280;33768;48.578;11.574;2023-04-03T22:14:58;97220.47;;;-0.04
48003;BMP280;33768;48.578;11.574;2023-04-03T22:18:05;97215.97;;;-0.07
48003;BMP280;33768;48.578;11.574;2023-04-03T22:21:09;97224.03;;;-0.07
48003;BMP280;33768;48.578;11.574;2023-04-03T22:24:13;97222.09;;;-0.06
48003;BMP280;33768;48.578;11.574;2023-04-03T22:27:19;97225.66;;;-0.09
48003;BMP280;33768;48.578;11.574;2023-04-03T22:30:23;97214.16;;;-0.10
48003;BMP280;33768;48.578;11.574;2023-04-03T22:33:27;97215.66;;;-0.09
48003;BMP280;33768;48.578;11.574;2023-04-03T22:36:32;97209.66;;;-0.13
48003;BMP280;33768;48.578;11.574;2023-04-03T22:39:36;97213.53;;;-0.14
48003;BMP280;33768;48.578;11.574;2023-04-03T22:42:40;97214.72;;;-0.15
48003;BMP280;33768;48.578;11.574;2023-04-03T22:45:48;97206.91;;;-0.22
48003;BMP280;33768;48.578;11.574;2023-04-03T22:48:52;97208.97;;;-0.26